PWSweather.com
Personal Weather Stations
Station Observations
CW4114
Near Downtown, Rogers City, MI 49779

Near DowntownRogers City, MI 49779

Lat: 45.417443, Lon: -83.810642

Elevation: 605

Station Type: Davis Vantage Pro2 w/Solar

Latest ConditionsUpdated 7:19:30 PM EST Sunday, Jan 22, 2017
Currently Today's Max Today's Min Today's Average
Temperature 36.5°F2.5°C 40.8°F4.9°C 35.4°F1.9°C 37.5°F3.1°C
Dew Point 36.3°F2.4°C 40.8°F4.9°C 35.2°F1.8°C 37.3°F2.9°C
Winds Calm Calm 5.1 mph SW8.2 kmh SW - 1.0 mph 1.6 kmh
Wind Gusts -- 7.4 mph11.9 kmh - -
Humidity 99% 100% 99% 99%
Pressure 29.70 in1005.8 mb 29.71 in1006.1 mb 29.60 in1002.4 mb -
Hour Temp Dew Point Humidity Winds Wind Gusts Pressure Precip Precip Rate Daily Precip Total
07:19 PM 36.5°F2.5°C 36.3°F2.4°C 99% Calm Calm -- 29.70 in1005.8 mb 0.00 in0.0 mm 0.00 in0.0 mm 0.00 in0.0 mm
07:14 PM 36.3°F2.4°C 36.1°F2.3°C 99% Calm Calm -- 29.71 in1006.1 mb 0.00 in0.0 mm 0.00 in0.0 mm 0.00 in0.0 mm
07:09 PM 36.3°F2.4°C 36.1°F2.3°C 99% Calm Calm -- 29.70 in1005.8 mb 0.00 in0.0 mm 0.00 in0.0 mm 0.00 in0.0 mm
07:04 PM 36.3°F2.4°C 36.1°F2.3°C 99% 0.4 mph ESE0.6 kmh ESE 1.1 mph1.8 kmh 29.70 in1005.8 mb 0.00 in0.0 mm 0.00 in0.0 mm 0.00 in0.0 mm
06:59 PM 36.1°F2.3°C 36.0°F2.2°C 99% Calm Calm 1.1 mph1.8 kmh 29.70 in1005.8 mb 0.00 in0.0 mm 0.00 in0.0 mm 0.00 in0.0 mm
06:54 PM 36.1°F2.3°C 36.0°F2.2°C 99% Calm Calm -- 29.70 in1005.8 mb 0.00 in0.0 mm 0.00 in0.0 mm 0.00 in0.0 mm
06:49 PM 36.1°F2.3°C 36.0°F2.2°C 99% Calm Calm 1.1 mph1.8 kmh 29.70 in1005.8 mb 0.00 in0.0 mm 0.00 in0.0 mm 0.00 in0.0 mm
06:44 PM 36.1°F2.3°C 36.0°F2.2°C 99% 0.2 mph ESE0.3 kmh ESE 1.1 mph1.8 kmh 29.70 in1005.8 mb 0.00 in0.0 mm 0.00 in0.0 mm 0.00 in0.0 mm
06:39 PM 36.1°F2.3°C 36.0°F2.2°C 99% Calm Calm -- 29.70 in1005.8 mb 0.00 in0.0 mm 0.00 in0.0 mm 0.00 in0.0 mm
06:34 PM 36.1°F2.3°C 36.0°F2.2°C 99% Calm Calm -- 29.70 in1005.8 mb 0.00 in0.0 mm 0.00 in0.0 mm 0.00 in0.0 mm
06:29 PM 36.1°F2.3°C 36.0°F2.2°C 99% Calm Calm -- 29.70 in1005.8 mb 0.00 in0.0 mm 0.00 in0.0 mm 0.00 in0.0 mm
06:24 PM 36.3°F2.4°C 36.1°F2.3°C 99% Calm Calm -- 29.70 in1005.8 mb 0.00 in0.0 mm 0.00 in0.0 mm 0.00 in0.0 mm
06:19 PM 36.5°F2.5°C 36.3°F2.4°C 99% Calm Calm -- 29.70 in1005.8 mb 0.00 in0.0 mm 0.00 in0.0 mm 0.00 in0.0 mm
06:14 PM 36.7°F2.6°C 36.5°F2.5°C 99% Calm Calm -- 29.70 in1005.8 mb 0.00 in0.0 mm 0.00 in0.0 mm 0.00 in0.0 mm
06:09 PM 36.7°F2.6°C 36.5°F2.5°C 99% 0.7 mph ESE1.1 kmh ESE 1.1 mph1.8 kmh 29.70 in1005.8 mb 0.00 in0.0 mm 0.00 in0.0 mm 0.00 in0.0 mm
06:04 PM 36.9°F2.7°C 36.7°F2.6°C 99% 0.2 mph ESE0.3 kmh ESE 1.1 mph1.8 kmh 29.70 in1005.8 mb 0.00 in0.0 mm 0.00 in0.0 mm 0.00 in0.0 mm
05:59 PM 37.0°F2.8°C 36.9°F2.7°C 99% Calm Calm 1.1 mph1.8 kmh 29.70 in1005.8 mb 0.00 in0.0 mm 0.00 in0.0 mm 0.00 in0.0 mm
05:54 PM 37.0°F2.8°C 36.9°F2.7°C 99% 1.1 mph SE1.8 kmh SE 3.1 mph5.0 kmh 29.70 in1005.8 mb 0.00 in0.0 mm 0.00 in0.0 mm 0.00 in0.0 mm
05:49 PM 37.2°F2.9°C 37.0°F2.8°C 99% Calm Calm 1.1 mph1.8 kmh 29.69 in1005.4 mb 0.00 in0.0 mm 0.00 in0.0 mm 0.00 in0.0 mm
05:44 PM 37.4°F3.0°C 37.2°F2.9°C 99% Calm Calm -- 29.70 in1005.8 mb 0.00 in0.0 mm 0.00 in0.0 mm 0.00 in0.0 mm
05:39 PM 37.6°F3.1°C 37.4°F3.0°C 99% Calm Calm -- 29.69 in1005.4 mb 0.00 in0.0 mm 0.00 in0.0 mm 0.00 in0.0 mm
05:34 PM 37.8°F3.2°C 37.6°F3.1°C 99% Calm Calm -- 29.69 in1005.4 mb 0.00 in0.0 mm 0.00 in0.0 mm 0.00 in0.0 mm
05:29 PM 37.8°F3.2°C 37.6°F3.1°C 99% Calm Calm -- 29.69 in1005.4 mb 0.00 in0.0 mm 0.00 in0.0 mm 0.00 in0.0 mm
05:24 PM 37.8°F3.2°C 37.6°F3.1°C 99% 0.4 mph SSE0.6 kmh SSE 1.1 mph1.8 kmh 29.69 in1005.4 mb 0.00 in0.0 mm 0.00 in0.0 mm 0.00 in0.0 mm
05:19 PM 37.8°F3.2°C 37.6°F3.1°C 99% 0.4 mph SSE0.6 kmh SSE 3.1 mph5.0 kmh 29.69 in1005.4 mb 0.00 in0.0 mm 0.00 in0.0 mm 0.00 in0.0 mm
05:14 PM 37.8°F3.2°C 37.6°F3.1°C 99% 1.6 mph S2.6 kmh S 3.1 mph5.0 kmh 29.69 in1005.4 mb 0.00 in0.0 mm 0.00 in0.0 mm 0.00 in0.0 mm
05:09 PM 37.8°F3.2°C 37.6°F3.1°C 99% 0.9 mph SE1.4 kmh SE 4.3 mph6.9 kmh 29.69 in1005.4 mb 0.00 in0.0 mm 0.00 in0.0 mm 0.00 in0.0 mm
05:04 PM 37.6°F3.1°C 37.4°F3.0°C 99% 2.2 mph E3.5 kmh E 5.4 mph8.7 kmh 29.69 in1005.4 mb 0.00 in0.0 mm 0.00 in0.0 mm 0.00 in0.0 mm
04:59 PM 37.6°F3.1°C 37.4°F3.0°C 99% 1.8 mph E2.9 kmh E 4.3 mph6.9 kmh 29.68 in1005.1 mb 0.00 in0.0 mm 0.00 in0.0 mm 0.00 in0.0 mm
04:54 PM 37.6°F3.1°C 37.4°F3.0°C 99% 2.2 mph SE3.5 kmh SE 7.4 mph11.9 kmh 29.69 in1005.4 mb 0.00 in0.0 mm 0.00 in0.0 mm 0.00 in0.0 mm
04:49 PM 37.2°F2.9°C 37.0°F2.8°C 99% 2.9 mph SE4.7 kmh SE 6.3 mph10.1 kmh 29.69 in1005.4 mb 0.00 in0.0 mm 0.00 in0.0 mm 0.00 in0.0 mm
04:44 PM 37.0°F2.8°C 36.9°F2.7°C 99% 3.1 mph SE5.0 kmh SE 6.3 mph10.1 kmh 29.69 in1005.4 mb 0.00 in0.0 mm 0.00 in0.0 mm 0.00 in0.0 mm
04:39 PM 36.9°F2.7°C 36.7°F2.6°C 99% 1.6 mph SE2.6 kmh SE 4.3 mph6.9 kmh 29.68 in1005.1 mb 0.00 in0.0 mm 0.00 in0.0 mm 0.00 in0.0 mm
04:34 PM 36.7°F2.6°C 36.5°F2.5°C 99% 1.6 mph ESE2.6 kmh ESE 3.1 mph5.0 kmh 29.68 in1005.1 mb 0.00 in0.0 mm 0.00 in0.0 mm 0.00 in0.0 mm
04:29 PM 36.5°F2.5°C 36.3°F2.4°C 99% 1.6 mph E2.6 kmh E 3.1 mph5.0 kmh 29.68 in1005.1 mb 0.00 in0.0 mm 0.00 in0.0 mm 0.00 in0.0 mm
04:24 PM 36.7°F2.6°C 36.5°F2.5°C 99% 2.0 mph E3.2 kmh E 3.1 mph5.0 kmh 29.68 in1005.1 mb 0.00 in0.0 mm 0.00 in0.0 mm 0.00 in0.0 mm
04:19 PM 36.7°F2.6°C 36.5°F2.5°C 99% 1.6 mph ESE2.6 kmh ESE 2.0 mph3.2 kmh 29.68 in1005.1 mb 0.00 in0.0 mm 0.00 in0.0 mm 0.00 in0.0 mm
04:14 PM 36.7°F2.6°C 36.5°F2.5°C 99% 1.1 mph ENE1.8 kmh ENE 3.1 mph5.0 kmh 29.68 in1005.1 mb 0.00 in0.0 mm 0.00 in0.0 mm 0.00 in0.0 mm
04:09 PM 36.7°F2.6°C 36.5°F2.5°C 99% 0.9 mph E1.4 kmh E 2.0 mph3.2 kmh 29.68 in1005.1 mb 0.00 in0.0 mm 0.00 in0.0 mm 0.00 in0.0 mm
04:04 PM 36.7°F2.6°C 36.5°F2.5°C 99% 1.3 mph E2.1 kmh E 2.0 mph3.2 kmh 29.68 in1005.1 mb 0.00 in0.0 mm 0.00 in0.0 mm 0.00 in0.0 mm
03:59 PM 36.7°F2.6°C 36.5°F2.5°C 99% 1.3 mph E2.1 kmh E 2.0 mph3.2 kmh 29.68 in1005.1 mb 0.00 in0.0 mm 0.00 in0.0 mm 0.00 in0.0 mm
03:54 PM 36.7°F2.6°C 36.5°F2.5°C 99% 0.9 mph E1.4 kmh E 3.1 mph5.0 kmh 29.67 in1004.7 mb 0.00 in0.0 mm 0.00 in0.0 mm 0.00 in0.0 mm
03:49 PM 36.7°F2.6°C 36.5°F2.5°C 99% 0.4 mph E0.6 kmh E 2.0 mph3.2 kmh 29.68 in1005.1 mb 0.00 in0.0 mm 0.00 in0.0 mm 0.00 in0.0 mm
03:44 PM 36.7°F2.6°C 36.5°F2.5°C 99% 0.9 mph E1.4 kmh E 2.0 mph3.2 kmh 29.67 in1004.7 mb 0.00 in0.0 mm 0.00 in0.0 mm 0.00 in0.0 mm
03:39 PM 36.9°F2.7°C 36.7°F2.6°C 99% 2.0 mph E3.2 kmh E 4.3 mph6.9 kmh 29.67 in1004.7 mb 0.00 in0.0 mm 0.00 in0.0 mm 0.00 in0.0 mm
03:34 PM 36.9°F2.7°C 36.7°F2.6°C 99% 2.0 mph E3.2 kmh E 5.4 mph8.7 kmh 29.67 in1004.7 mb 0.00 in0.0 mm 0.00 in0.0 mm 0.00 in0.0 mm
03:29 PM 37.0°F2.8°C 36.9°F2.7°C 99% 1.8 mph E2.9 kmh E 4.3 mph6.9 kmh 29.67 in1004.7 mb 0.00 in0.0 mm 0.00 in0.0 mm 0.00 in0.0 mm
03:24 PM 37.2°F2.9°C 37.0°F2.8°C 99% 2.5 mph E4.0 kmh E 4.3 mph6.9 kmh 29.67 in1004.7 mb 0.00 in0.0 mm 0.00 in0.0 mm 0.00 in0.0 mm
03:19 PM 37.6°F3.1°C 37.4°F3.0°C 99% 2.7 mph ENE4.3 kmh ENE 4.3 mph6.9 kmh 29.67 in1004.7 mb 0.00 in0.0 mm 0.00 in0.0 mm 0.00 in0.0 mm
03:14 PM 37.8°F3.2°C 37.6°F3.1°C 99% 1.8 mph E2.9 kmh E 3.1 mph5.0 kmh 29.67 in1004.7 mb 0.00 in0.0 mm 0.00 in0.0 mm 0.00 in0.0 mm
03:09 PM 37.8°F3.2°C 37.6°F3.1°C 99% 1.3 mph E2.1 kmh E 2.0 mph3.2 kmh 29.67 in1004.7 mb 0.00 in0.0 mm 0.00 in0.0 mm 0.00 in0.0 mm
03:04 PM 37.8°F3.2°C 37.6°F3.1°C 99% 2.0 mph ENE3.2 kmh ENE 3.1 mph5.0 kmh 29.67 in1004.7 mb 0.00 in0.0 mm 0.00 in0.0 mm 0.00 in0.0 mm
02:59 PM 37.8°F3.2°C 37.6°F3.1°C 99% 0.9 mph E1.4 kmh E 3.1 mph5.0 kmh 29.67 in1004.7 mb 0.00 in0.0 mm 0.00 in0.0 mm 0.00 in0.0 mm
02:54 PM 37.8°F3.2°C 37.6°F3.1°C 99% 1.3 mph E2.1 kmh E 3.1 mph5.0 kmh 29.67 in1004.7 mb 0.00 in0.0 mm 0.00 in0.0 mm 0.00 in0.0 mm
02:49 PM 37.9°F3.3°C 37.8°F3.2°C 99% 1.8 mph E2.9 kmh E 5.4 mph8.7 kmh 29.67 in1004.7 mb 0.00 in0.0 mm 0.00 in0.0 mm 0.00 in0.0 mm
02:44 PM 38.3°F3.5°C 38.1°F3.4°C 99% 2.5 mph E4.0 kmh E 4.3 mph6.9 kmh 29.67 in1004.7 mb 0.00 in0.0 mm 0.00 in0.0 mm 0.00 in0.0 mm
02:39 PM 38.5°F3.6°C 38.3°F3.5°C 99% 2.5 mph E4.0 kmh E 4.3 mph6.9 kmh 29.67 in1004.7 mb 0.00 in0.0 mm 0.00 in0.0 mm 0.00 in0.0 mm
02:34 PM 38.5°F3.6°C 38.3°F3.5°C 99% 1.6 mph E2.6 kmh E 3.1 mph5.0 kmh 29.66 in1004.4 mb 0.00 in0.0 mm 0.00 in0.0 mm 0.00 in0.0 mm
02:29 PM 38.5°F3.6°C 38.3°F3.5°C 99% 1.6 mph E2.6 kmh E 3.1 mph5.0 kmh 29.66 in1004.4 mb 0.00 in0.0 mm 0.00 in0.0 mm 0.00 in0.0 mm
02:24 PM 38.3°F3.5°C 38.1°F3.4°C 99% 1.1 mph E1.8 kmh E 5.4 mph8.7 kmh 29.66 in1004.4 mb 0.00 in0.0 mm 0.00 in0.0 mm 0.00 in0.0 mm
02:19 PM 38.3°F3.5°C 38.1°F3.4°C 99% 1.8 mph E2.9 kmh E 4.3 mph6.9 kmh 29.66 in1004.4 mb 0.00 in0.0 mm 0.00 in0.0 mm 0.00 in0.0 mm
02:14 PM 38.5°F3.6°C 38.3°F3.5°C 99% 1.3 mph ESE2.1 kmh ESE 3.1 mph5.0 kmh 29.66 in1004.4 mb 0.00 in0.0 mm 0.00 in0.0 mm 0.00 in0.0 mm
02:09 PM 38.1°F3.4°C 37.9°F3.3°C 99% 1.6 mph E2.6 kmh E 3.1 mph5.0 kmh 29.66 in1004.4 mb 0.00 in0.0 mm 0.00 in0.0 mm 0.00 in0.0 mm
02:04 PM 37.9°F3.3°C 37.8°F3.2°C 99% 1.8 mph ENE2.9 kmh ENE 4.3 mph6.9 kmh 29.66 in1004.4 mb 0.00 in0.0 mm 0.00 in0.0 mm 0.00 in0.0 mm
01:59 PM 37.8°F3.2°C 37.6°F3.1°C 99% 2.7 mph E4.3 kmh E 6.3 mph10.1 kmh 29.66 in1004.4 mb 0.00 in0.0 mm 0.00 in0.0 mm 0.00 in0.0 mm
01:54 PM 37.6°F3.1°C 37.4°F3.0°C 99% 3.4 mph E5.5 kmh E 6.3 mph10.1 kmh 29.66 in1004.4 mb 0.00 in0.0 mm 0.00 in0.0 mm 0.00 in0.0 mm
01:49 PM 37.8°F3.2°C 37.6°F3.1°C 99% 2.7 mph E4.3 kmh E 5.4 mph8.7 kmh 29.66 in1004.4 mb 0.00 in0.0 mm 0.00 in0.0 mm 0.00 in0.0 mm
01:44 PM 38.1°F3.4°C 37.9°F3.3°C 99% 3.1 mph ESE5.0 kmh ESE 6.3 mph10.1 kmh 29.66 in1004.4 mb 0.00 in0.0 mm 0.00 in0.0 mm 0.00 in0.0 mm
01:39 PM 38.7°F3.7°C 38.5°F3.6°C 99% 2.9 mph E4.7 kmh E 6.3 mph10.1 kmh 29.66 in1004.4 mb 0.00 in0.0 mm 0.00 in0.0 mm 0.00 in0.0 mm
01:34 PM 38.7°F3.7°C 38.5°F3.6°C 99% 1.6 mph E2.6 kmh E 3.1 mph5.0 kmh 29.66 in1004.4 mb 0.00 in0.0 mm 0.00 in0.0 mm 0.00 in0.0 mm
01:29 PM 38.7°F3.7°C 38.5°F3.6°C 99% 2.0 mph E3.2 kmh E 4.3 mph6.9 kmh 29.66 in1004.4 mb 0.00 in0.0 mm 0.00 in0.0 mm 0.00 in0.0 mm
01:24 PM 38.8°F3.8°C 38.7°F3.7°C 99% 2.7 mph SE4.3 kmh SE 4.3 mph6.9 kmh 29.66 in1004.4 mb 0.00 in0.0 mm 0.00 in0.0 mm 0.00 in0.0 mm
01:19 PM 39.0°F3.9°C 39.0°F3.9°C 100% 2.9 mph E4.7 kmh E 5.4 mph8.7 kmh 29.66 in1004.4 mb 0.00 in0.0 mm 0.00 in0.0 mm 0.00 in0.0 mm
01:14 PM 39.4°F4.1°C 39.2°F4.0°C 99% 2.5 mph E4.0 kmh E 4.3 mph6.9 kmh 29.67 in1004.7 mb 0.00 in0.0 mm 0.00 in0.0 mm 0.00 in0.0 mm
01:09 PM 39.6°F4.2°C 39.4°F4.1°C 99% 1.8 mph ENE2.9 kmh ENE 3.1 mph5.0 kmh 29.67 in1004.7 mb 0.00 in0.0 mm 0.00 in0.0 mm 0.00 in0.0 mm
01:04 PM 39.4°F4.1°C 39.2°F4.0°C 99% 0.4 mph E0.6 kmh E 1.1 mph1.8 kmh 29.67 in1004.7 mb 0.00 in0.0 mm 0.00 in0.0 mm 0.00 in0.0 mm
12:59 PM 39.0°F3.9°C 39.0°F3.9°C 100% Calm Calm 1.1 mph1.8 kmh 29.67 in1004.7 mb 0.00 in0.0 mm 0.00 in0.0 mm 0.00 in0.0 mm
12:54 PM 38.8°F3.8°C 38.7°F3.7°C 99% 0.4 mph ESE0.6 kmh ESE 2.0 mph3.2 kmh 29.67 in1004.7 mb 0.00 in0.0 mm 0.00 in0.0 mm 0.00 in0.0 mm
12:49 PM 38.7°F3.7°C 38.5°F3.6°C 99% 1.8 mph E2.9 kmh E 4.3 mph6.9 kmh 29.67 in1004.7 mb 0.00 in0.0 mm 0.00 in0.0 mm 0.00 in0.0 mm
12:44 PM 38.7°F3.7°C 38.5°F3.6°C 99% 1.8 mph E2.9 kmh E 3.1 mph5.0 kmh 29.67 in1004.7 mb 0.00 in0.0 mm 0.00 in0.0 mm 0.00 in0.0 mm
12:39 PM 38.8°F3.8°C 38.7°F3.7°C 99% 1.6 mph ESE2.6 kmh ESE 7.4 mph11.9 kmh 29.67 in1004.7 mb 0.00 in0.0 mm 0.00 in0.0 mm 0.00 in0.0 mm
12:34 PM 39.0°F3.9°C 38.8°F3.8°C 99% 3.4 mph E5.5 kmh E 5.4 mph8.7 kmh 29.67 in1004.7 mb 0.00 in0.0 mm 0.00 in0.0 mm 0.00 in0.0 mm
12:29 PM 39.0°F3.9°C 38.8°F3.8°C 99% 2.7 mph E4.3 kmh E 5.4 mph8.7 kmh 29.67 in1004.7 mb 0.00 in0.0 mm 0.00 in0.0 mm 0.00 in0.0 mm
12:24 PM 39.4°F4.1°C 39.2°F4.0°C 99% 2.7 mph E4.3 kmh E 4.3 mph6.9 kmh 29.68 in1005.1 mb 0.00 in0.0 mm 0.00 in0.0 mm 0.00 in0.0 mm
12:19 PM 39.4°F4.1°C 39.2°F4.0°C 99% 2.0 mph ESE3.2 kmh ESE 4.3 mph6.9 kmh 29.67 in1004.7 mb 0.00 in0.0 mm 0.00 in0.0 mm 0.00 in0.0 mm
12:14 PM 40.5°F4.7°C 40.5°F4.7°C 100% 2.7 mph ENE4.3 kmh ENE 5.4 mph8.7 kmh 29.68 in1005.1 mb 0.00 in0.0 mm 0.00 in0.0 mm 0.00 in0.0 mm
12:09 PM 40.8°F4.9°C 40.8°F4.9°C 100% 0.2 mph SE0.3 kmh SE 2.0 mph3.2 kmh 29.68 in1005.1 mb 0.00 in0.0 mm 0.00 in0.0 mm 0.00 in0.0 mm
12:04 PM 40.6°F4.8°C 40.6°F4.8°C 100% 0.7 mph S1.1 kmh S 3.1 mph5.0 kmh 29.67 in1004.7 mb 0.00 in0.0 mm 0.00 in0.0 mm 0.00 in0.0 mm
11:59 AM 40.5°F4.7°C 40.5°F4.7°C 100% 0.9 mph S1.4 kmh S 2.0 mph3.2 kmh 29.67 in1004.7 mb 0.00 in0.0 mm 0.00 in0.0 mm 0.00 in0.0 mm
11:54 AM 40.1°F4.5°C 40.1°F4.5°C 100% 0.4 mph SSE0.6 kmh SSE 2.0 mph3.2 kmh 29.67 in1004.7 mb 0.00 in0.0 mm 0.00 in0.0 mm 0.00 in0.0 mm
11:49 AM 39.9°F4.4°C 39.9°F4.4°C 100% 0.4 mph SSE0.6 kmh SSE 1.1 mph1.8 kmh 29.67 in1004.7 mb 0.00 in0.0 mm 0.00 in0.0 mm 0.00 in0.0 mm
11:44 AM 39.7°F4.3°C 39.7°F4.3°C 100% 0.9 mph SSE1.4 kmh SSE 2.0 mph3.2 kmh 29.68 in1005.1 mb 0.00 in0.0 mm 0.00 in0.0 mm 0.00 in0.0 mm
11:39 AM 39.6°F4.2°C 39.6°F4.2°C 100% 0.2 mph S0.3 kmh S 1.1 mph1.8 kmh 29.68 in1005.1 mb 0.00 in0.0 mm 0.00 in0.0 mm 0.00 in0.0 mm
11:34 AM 39.6°F4.2°C 39.6°F4.2°C 100% 0.4 mph S0.6 kmh S 1.1 mph1.8 kmh 29.68 in1005.1 mb 0.00 in0.0 mm 0.00 in0.0 mm 0.00 in0.0 mm
11:29 AM 39.4°F4.1°C 39.4°F4.1°C 100% 0.2 mph S0.3 kmh S 2.0 mph3.2 kmh 29.68 in1005.1 mb 0.00 in0.0 mm 0.00 in0.0 mm 0.00 in0.0 mm
11:24 AM 39.4°F4.1°C 39.4°F4.1°C 100% 0.7 mph SE1.1 kmh SE 2.0 mph3.2 kmh 29.68 in1005.1 mb 0.00 in0.0 mm 0.00 in0.0 mm 0.00 in0.0 mm
11:19 AM 39.2°F4.0°C 39.2°F4.0°C 100% 0.2 mph SSE0.3 kmh SSE 2.0 mph3.2 kmh 29.68 in1005.1 mb 0.00 in0.0 mm 0.00 in0.0 mm 0.00 in0.0 mm
11:14 AM 39.2°F4.0°C 39.2°F4.0°C 100% 0.2 mph SSE0.3 kmh SSE 1.1 mph1.8 kmh 29.69 in1005.4 mb 0.00 in0.0 mm 0.00 in0.0 mm 0.00 in0.0 mm
11:09 AM 39.2°F4.0°C 39.2°F4.0°C 100% 0.2 mph S0.3 kmh S 1.1 mph1.8 kmh 29.69 in1005.4 mb 0.00 in0.0 mm 0.00 in0.0 mm 0.00 in0.0 mm
11:04 AM 39.0°F3.9°C 39.0°F3.9°C 100% Calm Calm -- 29.68 in1005.1 mb 0.00 in0.0 mm 0.00 in0.0 mm 0.00 in0.0 mm
10:59 AM 39.0°F3.9°C 39.0°F3.9°C 100% 0.2 mph SSW0.3 kmh SSW 2.0 mph3.2 kmh 29.68 in1005.1 mb 0.00 in0.0 mm 0.00 in0.0 mm 0.00 in0.0 mm
10:54 AM 39.0°F3.9°C 39.0°F3.9°C 100% 0.7 mph SSW1.1 kmh SSW 3.1 mph5.0 kmh 29.69 in1005.4 mb 0.00 in0.0 mm 0.00 in0.0 mm 0.00 in0.0 mm
10:49 AM 39.0°F3.9°C 39.0°F3.9°C 100% 0.2 mph SW0.3 kmh SW -- 29.69 in1005.4 mb 0.00 in0.0 mm 0.00 in0.0 mm 0.00 in0.0 mm
10:44 AM 38.8°F3.8°C 38.8°F3.8°C 100% Calm Calm -- 29.68 in1005.1 mb 0.00 in0.0 mm 0.00 in0.0 mm 0.00 in0.0 mm
10:39 AM 38.7°F3.7°C 38.7°F3.7°C 100% Calm Calm -- 29.68 in1005.1 mb 0.00 in0.0 mm 0.00 in0.0 mm 0.00 in0.0 mm
10:34 AM 38.7°F3.7°C 38.7°F3.7°C 100% Calm Calm -- 29.68 in1005.1 mb 0.00 in0.0 mm 0.00 in0.0 mm 0.00 in0.0 mm
10:29 AM 38.5°F3.6°C 38.5°F3.6°C 100% Calm Calm -- 29.68 in1005.1 mb 0.00 in0.0 mm 0.00 in0.0 mm 0.00 in0.0 mm
10:24 AM 38.1°F3.4°C 38.1°F3.4°C 100% Calm Calm -- 29.68 in1005.1 mb 0.00 in0.0 mm 0.00 in0.0 mm 0.00 in0.0 mm
10:19 AM 37.9°F3.3°C 37.9°F3.3°C 100% Calm Calm -- 29.68 in1005.1 mb 0.00 in0.0 mm 0.00 in0.0 mm 0.00 in0.0 mm
10:14 AM 37.6°F3.1°C 37.6°F3.1°C 100% Calm Calm -- 29.68 in1005.1 mb 0.00 in0.0 mm 0.00 in0.0 mm 0.00 in0.0 mm
10:09 AM 37.4°F3.0°C 37.4°F3.0°C 100% Calm Calm -- 29.68 in1005.1 mb 0.00 in0.0 mm 0.00 in0.0 mm 0.00 in0.0 mm
10:04 AM 37.2°F2.9°C 37.2°F2.9°C 100% Calm Calm 1.1 mph1.8 kmh 29.68 in1005.1 mb 0.00 in0.0 mm 0.00 in0.0 mm 0.00 in0.0 mm
09:59 AM 37.4°F3.0°C 37.4°F3.0°C 100% Calm Calm -- 29.67 in1004.7 mb 0.00 in0.0 mm 0.00 in0.0 mm 0.00 in0.0 mm
09:54 AM 37.4°F3.0°C 37.4°F3.0°C 100% Calm Calm -- 29.67 in1004.7 mb 0.00 in0.0 mm 0.00 in0.0 mm 0.00 in0.0 mm
09:49 AM 37.2°F2.9°C 37.2°F2.9°C 100% Calm Calm -- 29.67 in1004.7 mb 0.00 in0.0 mm 0.00 in0.0 mm 0.00 in0.0 mm
09:44 AM 37.2°F2.9°C 37.2°F2.9°C 100% Calm Calm -- 29.67 in1004.7 mb 0.00 in0.0 mm 0.00 in0.0 mm 0.00 in0.0 mm
09:39 AM 37.0°F2.8°C 37.0°F2.8°C 100% Calm Calm -- 29.67 in1004.7 mb 0.00 in0.0 mm 0.00 in0.0 mm 0.00 in0.0 mm
09:34 AM 36.9°F2.7°C 36.9°F2.7°C 100% Calm Calm -- 29.67 in1004.7 mb 0.00 in0.0 mm 0.00 in0.0 mm 0.00 in0.0 mm
09:29 AM 36.7°F2.6°C 36.7°F2.6°C 100% Calm Calm -- 29.67 in1004.7 mb 0.00 in0.0 mm 0.00 in0.0 mm 0.00 in0.0 mm
09:24 AM 36.5°F2.5°C 36.5°F2.5°C 100% Calm Calm -- 29.66 in1004.4 mb 0.00 in0.0 mm 0.00 in0.0 mm 0.00 in0.0 mm
09:19 AM 36.3°F2.4°C 36.1°F2.3°C 99% Calm Calm -- 29.66 in1004.4 mb 0.00 in0.0 mm 0.00 in0.0 mm 0.00 in0.0 mm
09:14 AM 36.1°F2.3°C 36.0°F2.2°C 99% Calm Calm -- 29.66 in1004.4 mb 0.00 in0.0 mm 0.00 in0.0 mm 0.00 in0.0 mm
09:09 AM 36.0°F2.2°C 36.0°F2.2°C 100% Calm Calm -- 29.66 in1004.4 mb 0.00 in0.0 mm 0.00 in0.0 mm 0.00 in0.0 mm
09:04 AM 36.0°F2.2°C 36.0°F2.2°C 100% Calm Calm -- 29.66 in1004.4 mb 0.00 in0.0 mm 0.00 in0.0 mm 0.00 in0.0 mm
08:59 AM 35.8°F2.1°C 35.6°F2.0°C 99% Calm Calm -- 29.66 in1004.4 mb 0.00 in0.0 mm 0.00 in0.0 mm 0.00 in0.0 mm
08:54 AM 35.6°F2.0°C 35.4°F1.9°C 99% Calm Calm -- 29.66 in1004.4 mb 0.00 in0.0 mm 0.00 in0.0 mm 0.00 in0.0 mm
08:49 AM 35.6°F2.0°C 35.4°F1.9°C 99% Calm Calm -- 29.66 in1004.4 mb 0.00 in0.0 mm 0.00 in0.0 mm 0.00 in0.0 mm
08:44 AM 35.4°F1.9°C 35.2°F1.8°C 99% Calm Calm -- 29.66 in1004.4 mb 0.00 in0.0 mm 0.00 in0.0 mm 0.00 in0.0 mm
08:39 AM 35.4°F1.9°C 35.2°F1.8°C 99% Calm Calm -- 29.66 in1004.4 mb 0.00 in0.0 mm 0.00 in0.0 mm 0.00 in0.0 mm
08:34 AM 35.4°F1.9°C 35.2°F1.8°C 99% Calm Calm -- 29.66 in1004.4 mb 0.00 in0.0 mm 0.00 in0.0 mm 0.00 in0.0 mm
08:29 AM 35.4°F1.9°C 35.2°F1.8°C 99% Calm Calm -- 29.65 in1004.1 mb 0.00 in0.0 mm 0.00 in0.0 mm 0.00 in0.0 mm
08:24 AM 35.4°F1.9°C 35.2°F1.8°C 99% Calm Calm -- 29.65 in1004.1 mb 0.00 in0.0 mm 0.00 in0.0 mm 0.00 in0.0 mm
08:19 AM 35.4°F1.9°C 35.2°F1.8°C 99% Calm Calm -- 29.65 in1004.1 mb 0.00 in0.0 mm 0.00 in0.0 mm 0.00 in0.0 mm
08:14 AM 35.4°F1.9°C 35.2°F1.8°C 99% Calm Calm 1.1 mph1.8 kmh 29.65 in1004.1 mb 0.00 in0.0 mm 0.00 in0.0 mm 0.00 in0.0 mm
08:09 AM 35.4°F1.9°C 35.2°F1.8°C 99% 0.4 mph W0.6 kmh W -- 29.64 in1003.7 mb 0.00 in0.0 mm 0.00 in0.0 mm 0.00 in0.0 mm
08:04 AM 35.4°F1.9°C 35.2°F1.8°C 99% Calm Calm -- 29.64 in1003.7 mb 0.00 in0.0 mm 0.00 in0.0 mm 0.00 in0.0 mm
07:59 AM 35.4°F1.9°C 35.2°F1.8°C 99% Calm Calm -- 29.64 in1003.7 mb 0.00 in0.0 mm 0.00 in0.0 mm 0.00 in0.0 mm
07:54 AM 35.4°F1.9°C 35.2°F1.8°C 99% 0.7 mph W1.1 kmh W 2.0 mph3.2 kmh 29.63 in1003.4 mb 0.00 in0.0 mm 0.00 in0.0 mm 0.00 in0.0 mm
07:49 AM 35.4°F1.9°C 35.2°F1.8°C 99% 1.6 mph WSW2.6 kmh WSW 4.3 mph6.9 kmh 29.63 in1003.4 mb 0.00 in0.0 mm 0.00 in0.0 mm 0.00 in0.0 mm
07:44 AM 35.4°F1.9°C 35.2°F1.8°C 99% Calm Calm 1.1 mph1.8 kmh 29.63 in1003.4 mb 0.00 in0.0 mm 0.00 in0.0 mm 0.00 in0.0 mm
07:39 AM 35.4°F1.9°C 35.2°F1.8°C 99% 0.7 mph NW1.1 kmh NW 2.0 mph3.2 kmh 29.63 in1003.4 mb 0.00 in0.0 mm 0.00 in0.0 mm 0.00 in0.0 mm
07:34 AM 35.6°F2.0°C 35.4°F1.9°C 99% 1.6 mph NW2.6 kmh NW 3.1 mph5.0 kmh 29.62 in1003.0 mb 0.00 in0.0 mm 0.00 in0.0 mm 0.00 in0.0 mm
07:29 AM 35.8°F2.1°C 35.6°F2.0°C 99% 1.1 mph NW1.8 kmh NW 3.1 mph5.0 kmh 29.62 in1003.0 mb 0.00 in0.0 mm 0.00 in0.0 mm 0.00 in0.0 mm
07:24 AM 36.0°F2.2°C 35.8°F2.1°C 99% 0.9 mph NW1.4 kmh NW 3.1 mph5.0 kmh 29.62 in1003.0 mb 0.00 in0.0 mm 0.00 in0.0 mm 0.00 in0.0 mm
07:19 AM 36.1°F2.3°C 36.0°F2.2°C 99% 0.4 mph NW0.6 kmh NW 1.1 mph1.8 kmh 29.62 in1003.0 mb 0.00 in0.0 mm 0.00 in0.0 mm 0.00 in0.0 mm
07:13 AM 36.7°F2.6°C 36.5°F2.5°C 99% 0.9 mph NW1.4 kmh NW 2.0 mph3.2 kmh 29.62 in1003.0 mb 0.00 in0.0 mm 0.00 in0.0 mm 0.00 in0.0 mm
07:08 AM 36.9°F2.7°C 36.7°F2.6°C 99% 0.2 mph W0.3 kmh W 3.1 mph5.0 kmh 29.61 in1002.7 mb 0.00 in0.0 mm 0.00 in0.0 mm 0.00 in0.0 mm
07:03 AM 37.0°F2.8°C 36.9°F2.7°C 99% 1.6 mph SSW2.6 kmh SSW 3.1 mph5.0 kmh 29.61 in1002.7 mb 0.00 in0.0 mm 0.00 in0.0 mm 0.00 in0.0 mm
06:58 AM 37.0°F2.8°C 36.9°F2.7°C 99% 0.2 mph S0.3 kmh S 3.1 mph5.0 kmh 29.61 in1002.7 mb 0.00 in0.0 mm 0.00 in0.0 mm 0.00 in0.0 mm
06:53 AM 37.0°F2.8°C 36.9°F2.7°C 99% 0.4 mph SW0.6 kmh SW 3.1 mph5.0 kmh 29.61 in1002.7 mb 0.00 in0.0 mm 0.00 in0.0 mm 0.00 in0.0 mm
06:48 AM 37.4°F3.0°C 37.2°F2.9°C 99% 0.4 mph SSW0.6 kmh SSW 3.1 mph5.0 kmh 29.61 in1002.7 mb 0.00 in0.0 mm 0.00 in0.0 mm 0.00 in0.0 mm
06:43 AM 37.6°F3.1°C 37.4°F3.0°C 99% 1.8 mph SW2.9 kmh SW 2.0 mph3.2 kmh 29.61 in1002.7 mb 0.00 in0.0 mm 0.00 in0.0 mm 0.00 in0.0 mm
06:38 AM 37.8°F3.2°C 37.6°F3.1°C 99% 0.7 mph S1.1 kmh S 1.1 mph1.8 kmh 29.60 in1002.4 mb 0.00 in0.0 mm 0.00 in0.0 mm 0.00 in0.0 mm
06:33 AM 38.1°F3.4°C 38.1°F3.4°C 100% Calm Calm 2.0 mph3.2 kmh 29.61 in1002.7 mb 0.00 in0.0 mm 0.00 in0.0 mm 0.00 in0.0 mm
06:28 AM 38.5°F3.6°C 38.3°F3.5°C 99% Calm Calm 2.0 mph3.2 kmh 29.61 in1002.7 mb 0.00 in0.0 mm 0.00 in0.0 mm 0.00 in0.0 mm
06:23 AM 38.7°F3.7°C 38.7°F3.7°C 100% 1.1 mph WSW1.8 kmh WSW 2.0 mph3.2 kmh 29.60 in1002.4 mb 0.00 in0.0 mm 0.00 in0.0 mm 0.00 in0.0 mm
06:18 AM 38.8°F3.8°C 38.8°F3.8°C 100% 0.7 mph SW1.1 kmh SW 4.3 mph6.9 kmh 29.61 in1002.7 mb 0.00 in0.0 mm 0.00 in0.0 mm 0.00 in0.0 mm
06:13 AM 39.0°F3.9°C 39.0°F3.9°C 100% 1.1 mph SSW1.8 kmh SSW 3.1 mph5.0 kmh 29.61 in1002.7 mb 0.00 in0.0 mm 0.00 in0.0 mm 0.00 in0.0 mm
06:08 AM 39.0°F3.9°C 39.0°F3.9°C 100% 2.0 mph SW3.2 kmh SW 4.3 mph6.9 kmh 29.61 in1002.7 mb 0.00 in0.0 mm 0.00 in0.0 mm 0.00 in0.0 mm
06:03 AM 39.2°F4.0°C 39.2°F4.0°C 100% 2.9 mph SW4.7 kmh SW 5.4 mph8.7 kmh 29.61 in1002.7 mb 0.00 in0.0 mm 0.00 in0.0 mm 0.00 in0.0 mm
05:58 AM 39.4°F4.1°C 39.4°F4.1°C 100% 3.6 mph SW5.8 kmh SW 6.3 mph10.1 kmh 29.61 in1002.7 mb 0.00 in0.0 mm 0.00 in0.0 mm 0.00 in0.0 mm
05:53 AM 39.4°F4.1°C 39.4°F4.1°C 100% 3.4 mph SW5.5 kmh SW 7.4 mph11.9 kmh 29.61 in1002.7 mb 0.00 in0.0 mm 0.00 in0.0 mm 0.00 in0.0 mm
05:48 AM 39.2°F4.0°C 39.2°F4.0°C 100% 3.8 mph SW6.1 kmh SW 7.4 mph11.9 kmh 29.61 in1002.7 mb 0.00 in0.0 mm 0.00 in0.0 mm 0.00 in0.0 mm
05:43 AM 39.0°F3.9°C 39.0°F3.9°C 100% 5.1 mph SW8.2 kmh SW 7.4 mph11.9 kmh 29.61 in1002.7 mb 0.00 in0.0 mm 0.00 in0.0 mm 0.00 in0.0 mm
05:38 AM 38.8°F3.8°C 38.8°F3.8°C 100% 4.7 mph SSW7.6 kmh SSW 6.3 mph10.1 kmh 29.61 in1002.7 mb 0.00 in0.0 mm 0.00 in0.0 mm 0.00 in0.0 mm
05:33 AM 38.7°F3.7°C 38.7°F3.7°C 100% 3.4 mph WSW5.5 kmh WSW 6.3 mph10.1 kmh 29.61 in1002.7 mb 0.00 in0.0 mm 0.00 in0.0 mm 0.00 in0.0 mm
05:28 AM 38.7°F3.7°C 38.7°F3.7°C 100% 4.3 mph SW6.9 kmh SW 6.3 mph10.1 kmh 29.61 in1002.7 mb 0.00 in0.0 mm 0.00 in0.0 mm 0.00 in0.0 mm
05:23 AM 38.5°F3.6°C 38.5°F3.6°C 100% 3.6 mph SW5.8 kmh SW 6.3 mph10.1 kmh 29.61 in1002.7 mb 0.00 in0.0 mm 0.00 in0.0 mm 0.00 in0.0 mm
05:18 AM 38.5°F3.6°C 38.5°F3.6°C 100% 3.6 mph SW5.8 kmh SW 5.4 mph8.7 kmh 29.61 in1002.7 mb 0.00 in0.0 mm 0.00 in0.0 mm 0.00 in0.0 mm
05:13 AM 38.5°F3.6°C 38.5°F3.6°C 100% 3.1 mph SW5.0 kmh SW 5.4 mph8.7 kmh 29.61 in1002.7 mb 0.00 in0.0 mm 0.00 in0.0 mm 0.00 in0.0 mm
05:08 AM 38.5°F3.6°C 38.5°F3.6°C 100% 2.5 mph SW4.0 kmh SW 4.3 mph6.9 kmh 29.61 in1002.7 mb 0.00 in0.0 mm 0.00 in0.0 mm 0.00 in0.0 mm
05:03 AM 38.3°F3.5°C 38.3°F3.5°C 100% 1.3 mph SW2.1 kmh SW 3.1 mph5.0 kmh 29.61 in1002.7 mb 0.00 in0.0 mm 0.00 in0.0 mm 0.00 in0.0 mm
04:58 AM 37.9°F3.3°C 37.8°F3.2°C 99% 1.8 mph SW2.9 kmh SW 3.1 mph5.0 kmh 29.61 in1002.7 mb 0.00 in0.0 mm 0.00 in0.0 mm 0.00 in0.0 mm
04:53 AM 37.6°F3.1°C 37.6°F3.1°C 100% 1.3 mph SSW2.1 kmh SSW 3.1 mph5.0 kmh 29.61 in1002.7 mb 0.00 in0.0 mm 0.00 in0.0 mm 0.00 in0.0 mm
04:48 AM 37.2°F2.9°C 37.0°F2.8°C 99% 1.8 mph SW2.9 kmh SW 3.1 mph5.0 kmh 29.61 in1002.7 mb 0.00 in0.0 mm 0.00 in0.0 mm 0.00 in0.0 mm
04:43 AM 37.0°F2.8°C 36.9°F2.7°C 99% 1.8 mph SW2.9 kmh SW 3.1 mph5.0 kmh 29.61 in1002.7 mb 0.00 in0.0 mm 0.00 in0.0 mm 0.00 in0.0 mm
04:38 AM 37.2°F2.9°C 37.0°F2.8°C 99% 0.9 mph SW1.4 kmh SW 2.0 mph3.2 kmh 29.61 in1002.7 mb 0.00 in0.0 mm 0.00 in0.0 mm 0.00 in0.0 mm
04:33 AM 37.2°F2.9°C 37.0°F2.8°C 99% Calm Calm 1.1 mph1.8 kmh 29.61 in1002.7 mb 0.00 in0.0 mm 0.00 in0.0 mm 0.00 in0.0 mm
04:28 AM 37.2°F2.9°C 37.0°F2.8°C 99% 0.4 mph W0.6 kmh W 1.1 mph1.8 kmh 29.61 in1002.7 mb 0.00 in0.0 mm 0.00 in0.0 mm 0.00 in0.0 mm
04:23 AM 37.4°F3.0°C 37.2°F2.9°C 99% 0.4 mph W0.6 kmh W 2.0 mph3.2 kmh 29.61 in1002.7 mb 0.00 in0.0 mm 0.00 in0.0 mm 0.00 in0.0 mm
04:18 AM 37.6°F3.1°C 37.6°F3.1°C 100% 0.2 mph SW0.3 kmh SW 2.0 mph3.2 kmh 29.61 in1002.7 mb 0.00 in0.0 mm 0.00 in0.0 mm 0.00 in0.0 mm
04:13 AM 37.4°F3.0°C 37.4°F3.0°C 100% 1.3 mph SSW2.1 kmh SSW 2.0 mph3.2 kmh 29.61 in1002.7 mb 0.00 in0.0 mm 0.00 in0.0 mm 0.00 in0.0 mm
04:08 AM 37.4°F3.0°C 37.2°F2.9°C 99% 0.7 mph SE1.1 kmh SE 3.1 mph5.0 kmh 29.61 in1002.7 mb 0.00 in0.0 mm 0.00 in0.0 mm 0.00 in0.0 mm
04:03 AM 37.4°F3.0°C 37.4°F3.0°C 100% 0.7 mph SE1.1 kmh SE 4.3 mph6.9 kmh 29.62 in1003.0 mb 0.00 in0.0 mm 0.00 in0.0 mm 0.00 in0.0 mm
03:58 AM 37.6°F3.1°C 37.6°F3.1°C 100% 1.6 mph SSE2.6 kmh SSE 4.3 mph6.9 kmh 29.62 in1003.0 mb 0.00 in0.0 mm 0.00 in0.0 mm 0.00 in0.0 mm
03:53 AM 37.8°F3.2°C 37.8°F3.2°C 100% 0.7 mph SE1.1 kmh SE 3.1 mph5.0 kmh 29.62 in1003.0 mb 0.00 in0.0 mm 0.00 in0.0 mm 0.00 in0.0 mm
03:48 AM 37.8°F3.2°C 37.6°F3.1°C 99% 0.2 mph SE0.3 kmh SE 2.0 mph3.2 kmh 29.62 in1003.0 mb 0.00 in0.0 mm 0.00 in0.0 mm 0.00 in0.0 mm
03:43 AM 37.8°F3.2°C 37.6°F3.1°C 99% 0.9 mph S1.4 kmh S 3.1 mph5.0 kmh 29.62 in1003.0 mb 0.00 in0.0 mm 0.00 in0.0 mm 0.00 in0.0 mm
03:38 AM 37.8°F3.2°C 37.6°F3.1°C 99% 3.1 mph SE5.0 kmh SE 6.3 mph10.1 kmh 29.62 in1003.0 mb 0.00 in0.0 mm 0.00 in0.0 mm 0.00 in0.0 mm
03:33 AM 37.8°F3.2°C 37.6°F3.1°C 99% 0.4 mph S0.6 kmh S 3.1 mph5.0 kmh 29.62 in1003.0 mb 0.00 in0.0 mm 0.00 in0.0 mm 0.00 in0.0 mm
03:28 AM 37.8°F3.2°C 37.6°F3.1°C 99% Calm Calm 2.0 mph3.2 kmh 29.62 in1003.0 mb 0.00 in0.0 mm 0.00 in0.0 mm 0.00 in0.0 mm
03:23 AM 37.6°F3.1°C 37.6°F3.1°C 100% 0.7 mph SSW1.1 kmh SSW 3.1 mph5.0 kmh 29.62 in1003.0 mb 0.00 in0.0 mm 0.00 in0.0 mm 0.00 in0.0 mm
03:18 AM 37.4°F3.0°C 37.2°F2.9°C 99% 0.9 mph S1.4 kmh S 3.1 mph5.0 kmh 29.62 in1003.0 mb 0.00 in0.0 mm 0.00 in0.0 mm 0.00 in0.0 mm
03:13 AM 37.2°F2.9°C 37.0°F2.8°C 99% 1.3 mph S2.1 kmh S 3.1 mph5.0 kmh 29.62 in1003.0 mb 0.00 in0.0 mm 0.00 in0.0 mm 0.00 in0.0 mm
03:08 AM 37.2°F2.9°C 37.0°F2.8°C 99% 1.8 mph SSW2.9 kmh SSW 4.3 mph6.9 kmh 29.62 in1003.0 mb 0.00 in0.0 mm 0.00 in0.0 mm 0.00 in0.0 mm
03:03 AM 37.4°F3.0°C 37.2°F2.9°C 99% 0.4 mph S0.6 kmh S 2.0 mph3.2 kmh 29.62 in1003.0 mb 0.00 in0.0 mm 0.00 in0.0 mm 0.00 in0.0 mm
02:58 AM 37.4°F3.0°C 37.4°F3.0°C 100% 0.9 mph SSW1.4 kmh SSW 2.0 mph3.2 kmh 29.62 in1003.0 mb 0.00 in0.0 mm 0.00 in0.0 mm 0.00 in0.0 mm
02:53 AM 37.4°F3.0°C 37.4°F3.0°C 100% Calm Calm 2.0 mph3.2 kmh 29.62 in1003.0 mb 0.00 in0.0 mm 0.00 in0.0 mm 0.00 in0.0 mm
02:48 AM 37.6°F3.1°C 37.6°F3.1°C 100% 2.0 mph S3.2 kmh S 4.3 mph6.9 kmh 29.62 in1003.0 mb 0.00 in0.0 mm 0.00 in0.0 mm 0.00 in0.0 mm
02:43 AM 37.6°F3.1°C 37.6°F3.1°C 100% 2.0 mph S3.2 kmh S 4.3 mph6.9 kmh 29.62 in1003.0 mb 0.00 in0.0 mm 0.00 in0.0 mm 0.00 in0.0 mm
02:38 AM 37.6°F3.1°C 37.6°F3.1°C 100% 0.4 mph S0.6 kmh S 3.1 mph5.0 kmh 29.62 in1003.0 mb 0.00 in0.0 mm 0.00 in0.0 mm 0.00 in0.0 mm
02:33 AM 37.4°F3.0°C 37.4°F3.0°C 100% 0.9 mph S1.4 kmh S 3.1 mph5.0 kmh 29.62 in1003.0 mb 0.00 in0.0 mm 0.00 in0.0 mm 0.00 in0.0 mm
02:28 AM 37.4°F3.0°C 37.2°F2.9°C 99% 1.6 mph SSE2.6 kmh SSE 4.3 mph6.9 kmh 29.62 in1003.0 mb 0.00 in0.0 mm 0.00 in0.0 mm 0.00 in0.0 mm
02:23 AM 37.2°F2.9°C 37.0°F2.8°C 99% 1.8 mph S2.9 kmh S 3.1 mph5.0 kmh 29.62 in1003.0 mb 0.00 in0.0 mm 0.00 in0.0 mm 0.00 in0.0 mm
02:18 AM 37.2°F2.9°C 37.0°F2.8°C 99% 0.4 mph SSE0.6 kmh SSE 2.0 mph3.2 kmh 29.62 in1003.0 mb 0.00 in0.0 mm 0.00 in0.0 mm 0.00 in0.0 mm
02:13 AM 37.2°F2.9°C 37.0°F2.8°C 99% 2.0 mph SE3.2 kmh SE 3.1 mph5.0 kmh 29.62 in1003.0 mb 0.00 in0.0 mm 0.00 in0.0 mm 0.00 in0.0 mm
02:08 AM 37.2°F2.9°C 37.0°F2.8°C 99% 0.4 mph SSE0.6 kmh SSE 1.1 mph1.8 kmh 29.62 in1003.0 mb 0.00 in0.0 mm 0.00 in0.0 mm 0.00 in0.0 mm
02:03 AM 37.2°F2.9°C 37.0°F2.8°C 99% Calm Calm -- 29.62 in1003.0 mb 0.00 in0.0 mm 0.00 in0.0 mm 0.00 in0.0 mm
01:58 AM 37.0°F2.8°C 36.9°F2.7°C 99% Calm Calm 1.1 mph1.8 kmh 29.62 in1003.0 mb 0.00 in0.0 mm 0.00 in0.0 mm 0.00 in0.0 mm
01:53 AM 37.0°F2.8°C 36.9°F2.7°C 99% 0.2 mph SE0.3 kmh SE -- 29.62 in1003.0 mb 0.00 in0.0 mm 0.00 in0.0 mm 0.00 in0.0 mm
01:48 AM 37.0°F2.8°C 36.9°F2.7°C 99% 0.2 mph SE0.3 kmh SE 2.0 mph3.2 kmh 29.62 in1003.0 mb 0.00 in0.0 mm 0.00 in0.0 mm 0.00 in0.0 mm
01:43 AM 37.0°F2.8°C 36.9°F2.7°C 99% Calm Calm -- 29.62 in1003.0 mb 0.00 in0.0 mm 0.00 in0.0 mm 0.00 in0.0 mm
01:38 AM 36.9°F2.7°C 36.7°F2.6°C 99% Calm Calm 1.1 mph1.8 kmh 29.62 in1003.0 mb 0.00 in0.0 mm 0.00 in0.0 mm 0.00 in0.0 mm
01:33 AM 36.9°F2.7°C 36.7°F2.6°C 99% Calm Calm 2.0 mph3.2 kmh 29.62 in1003.0 mb 0.00 in0.0 mm 0.00 in0.0 mm 0.00 in0.0 mm
01:28 AM 36.9°F2.7°C 36.7°F2.6°C 99% 0.2 mph SE0.3 kmh SE 1.1 mph1.8 kmh 29.62 in1003.0 mb 0.00 in0.0 mm 0.00 in0.0 mm 0.00 in0.0 mm
01:23 AM 37.0°F2.8°C 37.0°F2.8°C 100% Calm Calm -- 29.62 in1003.0 mb 0.00 in0.0 mm 0.00 in0.0 mm 0.00 in0.0 mm
01:18 AM 37.0°F2.8°C 37.0°F2.8°C 100% Calm Calm 1.1 mph1.8 kmh 29.62 in1003.0 mb 0.00 in0.0 mm 0.00 in0.0 mm 0.00 in0.0 mm
01:13 AM 37.0°F2.8°C 37.0°F2.8°C 100% 0.4 mph ESE0.6 kmh ESE 2.0 mph3.2 kmh 29.62 in1003.0 mb 0.00 in0.0 mm 0.00 in0.0 mm 0.00 in0.0 mm
01:08 AM 36.9°F2.7°C 36.9°F2.7°C 100% 0.2 mph SE0.3 kmh SE 3.1 mph5.0 kmh 29.62 in1003.0 mb 0.00 in0.0 mm 0.00 in0.0 mm 0.00 in0.0 mm
01:03 AM 36.9°F2.7°C 36.7°F2.6°C 99% 0.7 mph SE1.1 kmh SE 5.4 mph8.7 kmh 29.62 in1003.0 mb 0.00 in0.0 mm 0.00 in0.0 mm 0.00 in0.0 mm
12:58 AM 36.7°F2.6°C 36.5°F2.5°C 99% 0.9 mph SE1.4 kmh SE 4.3 mph6.9 kmh 29.62 in1003.0 mb 0.00 in0.0 mm 0.00 in0.0 mm 0.00 in0.0 mm
12:53 AM 36.3°F2.4°C 36.1°F2.3°C 99% 0.9 mph SSE1.4 kmh SSE 3.1 mph5.0 kmh 29.61 in1002.7 mb 0.00 in0.0 mm 0.00 in0.0 mm 0.00 in0.0 mm
12:48 AM 36.1°F2.3°C 36.0°F2.2°C 99% 0.9 mph SE1.4 kmh SE 3.1 mph5.0 kmh 29.62 in1003.0 mb 0.00 in0.0 mm 0.00 in0.0 mm 0.00 in0.0 mm
12:43 AM 36.1°F2.3°C 36.0°F2.2°C 99% 0.4 mph SSE0.6 kmh SSE 2.0 mph3.2 kmh 29.62 in1003.0 mb 0.00 in0.0 mm 0.00 in0.0 mm 0.00 in0.0 mm
12:38 AM 36.0°F2.2°C 35.8°F2.1°C 99% 0.7 mph SSE1.1 kmh SSE 2.0 mph3.2 kmh 29.62 in1003.0 mb 0.00 in0.0 mm 0.00 in0.0 mm 0.00 in0.0 mm
12:33 AM 35.8°F2.1°C 35.6°F2.0°C 99% 1.1 mph SE1.8 kmh SE 2.0 mph3.2 kmh 29.62 in1003.0 mb 0.00 in0.0 mm 0.00 in0.0 mm 0.00 in0.0 mm
12:28 AM 35.8°F2.1°C 35.6°F2.0°C 99% 0.9 mph SE1.4 kmh SE 2.0 mph3.2 kmh 29.62 in1003.0 mb 0.00 in0.0 mm 0.00 in0.0 mm 0.00 in0.0 mm
12:23 AM 35.8°F2.1°C 35.6°F2.0°C 99% 0.9 mph SE1.4 kmh SE 3.1 mph5.0 kmh 29.62 in1003.0 mb 0.00 in0.0 mm 0.00 in0.0 mm 0.00 in0.0 mm
12:18 AM 35.6°F2.0°C 35.4°F1.9°C 99% 1.8 mph ESE2.9 kmh ESE 3.1 mph5.0 kmh 29.62 in1003.0 mb 0.00 in0.0 mm 0.00 in0.0 mm 0.00 in0.0 mm
12:13 AM 35.4°F1.9°C 35.2°F1.8°C 99% 1.3 mph ESE2.1 kmh ESE 2.0 mph3.2 kmh 29.62 in1003.0 mb 0.00 in0.0 mm 0.00 in0.0 mm 0.00 in0.0 mm
12:08 AM 35.4°F1.9°C 35.2°F1.8°C 99% 0.9 mph ESE1.4 kmh ESE 2.0 mph3.2 kmh 29.62 in1003.0 mb 0.00 in0.0 mm 0.00 in0.0 mm 0.00 in0.0 mm
12:03 AM 35.4°F1.9°C 35.2°F1.8°C 99% 1.1 mph E1.8 kmh E 2.0 mph3.2 kmh 29.62 in1003.0 mb 0.00 in0.0 mm 0.00 in0.0 mm 0.00 in0.0 mm